createdAt,value
2018-11-14T00:00:45.155Z,0
2018-11-14T00:01:44.900Z,0
2018-11-14T00:02:44.872Z,0
2018-11-14T00:03:44.855Z,0
2018-11-14T00:04:44.320Z,0
2018-11-14T00:05:44.908Z,0
2018-11-14T00:06:44.867Z,0
2018-11-14T00:07:44.550Z,0
2018-11-14T00:08:44.562Z,0
2018-11-14T00:09:44.963Z,0
2018-11-14T00:10:44.566Z,0
2018-11-14T00:11:44.830Z,0
2018-11-14T00:12:44.777Z,0
2018-11-14T00:13:44.763Z,0
2018-11-14T00:14:44.237Z,0
2018-11-14T00:15:44.033Z,0
2018-11-14T00:16:45.001Z,0
2018-11-14T00:17:44.739Z,0
2018-11-14T00:18:44.739Z,0
2018-11-14T00:19:44.725Z,0
2018-11-14T00:20:44.253Z,0
2018-11-14T00:21:45.031Z,0
2018-11-14T00:22:44.707Z,0
2018-11-14T00:23:44.445Z,0
2018-11-14T00:24:44.881Z,0
2018-11-14T00:25:44.773Z,0
2018-11-14T00:26:44.875Z,0
2018-11-14T00:27:44.474Z,0
2018-11-14T00:28:45.434Z,0
2018-11-14T00:29:44.636Z,0
2018-11-14T00:30:44.691Z,0
2018-11-14T00:31:44.378Z,0
2018-11-14T00:32:44.631Z,0
2018-11-14T00:33:46.027Z,0
2018-11-14T00:34:44.872Z,0
2018-11-14T00:35:45.198Z,0
2018-11-14T00:36:44.157Z,0
2018-11-14T00:37:44.099Z,0
2018-11-14T00:38:44.062Z,0
2018-11-14T00:39:44.055Z,0
2018-11-14T00:40:44.315Z,0
2018-11-14T00:41:43.776Z,0
2018-11-14T00:42:44.039Z,0
2018-11-14T00:43:44.800Z,0
2018-11-14T00:44:44.535Z,0
2018-11-14T00:45:44.570Z,0
2018-11-14T00:46:44.518Z,0
2018-11-14T00:47:44.521Z,0
2018-11-14T00:48:44.268Z,0
2018-11-14T00:49:44.745Z,0
2018-11-14T00:50:44.543Z,0
2018-11-14T00:51:44.480Z,0
2018-11-14T00:52:44.731Z,0
2018-11-14T00:53:44.242Z,0
2018-11-14T00:54:44.207Z,0
2018-11-14T00:55:44.010Z,0
2018-11-14T00:56:44.178Z,0
2018-11-14T00:57:44.195Z,0
2018-11-14T00:58:44.184Z,0
2018-11-14T00:59:44.681Z,0
2018-11-14T01:00:43.985Z,0
2018-11-14T01:01:44.709Z,0
2018-11-14T01:02:45.620Z,0
2018-11-14T01:03:43.892Z,0
2018-11-14T01:04:44.407Z,0
2018-11-14T01:05:43.903Z,0
2018-11-14T01:06:44.373Z,0
2018-11-14T01:07:43.870Z,0
2018-11-14T01:08:44.373Z,0
2018-11-14T01:09:45.169Z,0
2018-11-14T01:10:44.446Z,0
2018-11-14T01:11:44.119Z,0
2018-11-14T01:12:44.326Z,0
2018-11-14T01:13:44.579Z,0
2018-11-14T01:14:44.569Z,0
2018-11-14T01:15:44.044Z,0
2018-11-14T01:16:44.301Z,0
2018-11-14T01:17:44.921Z,0
2018-11-14T01:18:44.293Z,0
2018-11-14T01:19:44.541Z,0
2018-11-14T01:20:44.602Z,0
2018-11-14T01:21:44.622Z,0
2018-11-14T01:22:44.002Z,0
2018-11-14T01:23:44.258Z,0
2018-11-14T01:24:44.258Z,0
2018-11-14T01:25:44.063Z,0
2018-11-14T01:26:44.219Z,0
2018-11-14T01:27:43.973Z,0
2018-11-14T01:28:44.491Z,0
2018-11-14T01:29:43.948Z,0
2018-11-14T01:30:43.969Z,0
2018-11-14T01:31:44.188Z,0
2018-11-14T01:32:44.430Z,0
2018-11-14T01:33:43.672Z,0
2018-11-14T01:34:43.934Z,0
2018-11-14T01:35:44.125Z,0
2018-11-14T01:36:43.904Z,0
2018-11-14T01:37:44.153Z,0
2018-11-14T01:38:43.875Z,0
2018-11-14T01:39:43.611Z,0
2018-11-14T01:40:43.860Z,0
2018-11-14T01:41:43.875Z,0
2018-11-14T01:42:43.583Z,0
2018-11-14T01:43:44.091Z,0
2018-11-14T01:44:44.902Z,0
2018-11-14T01:45:44.189Z,0
2018-11-14T01:46:44.069Z,0
2018-11-14T01:47:44.323Z,0
2018-11-14T01:48:44.060Z,0
2018-11-14T01:49:44.057Z,0
2018-11-14T01:50:44.441Z,0
2018-11-14T01:51:43.784Z,0
2018-11-14T01:52:44.080Z,0
2018-11-14T01:53:43.498Z,0
2018-11-14T01:54:44.001Z,0
2018-11-14T01:55:43.617Z,0
2018-11-14T01:56:43.484Z,0
2018-11-14T01:57:43.994Z,0
2018-11-14T01:58:44.232Z,0
2018-11-14T01:59:44.000Z,0
2018-11-14T02:00:44.238Z,0
2018-11-14T02:01:43.686Z,0
2018-11-14T02:02:43.959Z,0
2018-11-14T02:03:43.937Z,0
2018-11-14T02:04:43.916Z,0
2018-11-14T02:05:43.984Z,0
2018-11-14T02:06:43.935Z,0
2018-11-14T02:07:43.639Z,0
2018-11-14T02:08:43.638Z,0
2018-11-14T02:09:43.612Z,0
2018-11-14T02:10:43.939Z,0
2018-11-14T02:11:43.606Z,0
2018-11-14T02:12:44.122Z,0
2018-11-14T02:13:43.610Z,0
2018-11-14T02:14:43.851Z,0
2018-11-14T02:15:43.861Z,0
2018-11-14T02:16:44.101Z,0
2018-11-14T02:17:43.832Z,0
2018-11-14T02:18:43.562Z,0
2018-11-14T02:19:43.799Z,0
2018-11-14T02:20:43.789Z,0
2018-11-14T02:21:43.538Z,0
2018-11-14T02:22:43.292Z,0
2018-11-14T02:23:43.261Z,0
2018-11-14T02:24:43.260Z,0
2018-11-14T02:25:43.353Z,0
2018-11-14T02:26:44.005Z,0
2018-11-14T02:27:43.247Z,0
2018-11-14T02:28:43.727Z,0
2018-11-14T02:29:43.721Z,0
2018-11-14T02:30:44.071Z,0
2018-11-14T02:31:43.480Z,0
2018-11-14T02:32:43.727Z,0
2018-11-14T02:33:43.454Z,0
2018-11-14T02:34:44.742Z,0
2018-11-14T02:35:43.686Z,0
2018-11-14T02:36:43.421Z,0
2018-11-14T02:37:43.425Z,0
2018-11-14T02:38:43.401Z,0
2018-11-14T02:39:43.410Z,0
2018-11-14T02:40:43.924Z,0
2018-11-14T02:41:43.626Z,0
2018-11-14T02:42:43.366Z,0
2018-11-14T02:43:43.615Z,0
2018-11-14T02:44:43.866Z,0
2018-11-14T02:45:43.374Z,0
2018-11-14T02:46:43.852Z,0
2018-11-14T02:47:43.108Z,0
2018-11-14T02:48:43.314Z,0
2018-11-14T02:49:43.855Z,0
2018-11-14T02:50:43.343Z,0
2018-11-14T02:51:43.815Z,0
2018-11-14T02:52:43.564Z,0
2018-11-14T02:53:43.775Z,0
2018-11-14T02:54:43.550Z,0
2018-11-14T02:55:43.578Z,0
2018-11-14T02:56:43.747Z,0
2018-11-14T02:57:43.764Z,0
2018-11-14T02:58:43.495Z,0
2018-11-14T02:59:43.223Z,0
2018-11-14T03:00:43.823Z,0
2018-11-14T03:01:43.523Z,0
2018-11-14T03:02:43.492Z,0
2018-11-14T03:03:43.450Z,0
2018-11-14T03:04:42.934Z,0
2018-11-14T03:05:43.438Z,0
2018-11-14T03:06:43.408Z,0
2018-11-14T03:07:43.443Z,0
2018-11-14T03:08:43.437Z,0
2018-11-14T03:09:43.394Z,0
2018-11-14T03:10:43.183Z,0
2018-11-14T03:11:43.113Z,0
2018-11-14T03:12:43.698Z,0
2018-11-14T03:13:43.133Z,0
2018-11-14T03:14:43.112Z,0
2018-11-14T03:15:43.142Z,0
2018-11-14T03:16:43.348Z,0
2018-11-14T03:17:43.083Z,0
2018-11-14T03:18:43.328Z,0
2018-11-14T03:19:43.336Z,0
2018-11-14T03:20:42.868Z,0
2018-11-14T03:21:43.560Z,0
2018-11-14T03:22:43.040Z,0
2018-11-14T03:23:43.290Z,0
2018-11-14T03:24:43.287Z,0
2018-11-14T03:25:43.302Z,0
2018-11-14T03:26:43.029Z,0
2018-11-14T03:27:43.515Z,0
2018-11-14T03:28:43.241Z,0
2018-11-14T03:29:43.251Z,0
2018-11-14T03:30:43.512Z,0
2018-11-14T03:31:42.688Z,0
2018-11-14T03:32:42.978Z,0
2018-11-14T03:33:43.197Z,0
2018-11-14T03:34:43.192Z,0
2018-11-14T03:35:43.512Z,0
2018-11-14T03:36:43.442Z,0
2018-11-14T03:37:42.681Z,0
2018-11-14T03:38:43.394Z,0
2018-11-14T03:39:43.413Z,0
2018-11-14T03:40:43.403Z,0
2018-11-14T03:41:43.133Z,0
2018-11-14T03:42:42.865Z,0
2018-11-14T03:43:43.373Z,0
2018-11-14T03:44:42.611Z,0
2018-11-14T03:45:43.194Z,0
2018-11-14T03:46:43.334Z,0
2018-11-14T03:47:43.086Z,0
2018-11-14T03:48:43.073Z,0
2018-11-14T03:49:43.042Z,0
2018-11-14T03:50:43.071Z,0
2018-11-14T03:51:43.097Z,0
2018-11-14T03:52:43.142Z,0
2018-11-14T03:53:42.788Z,0
2018-11-14T03:54:43.093Z,0
2018-11-14T03:55:43.303Z,0
2018-11-14T03:56:42.774Z,0
2018-11-14T03:57:42.749Z,0
2018-11-14T03:58:42.658Z,0
2018-11-14T03:59:42.737Z,0
2018-11-14T04:00:43.047Z,0
2018-11-14T04:01:42.716Z,0
2018-11-14T04:02:42.997Z,0
2018-11-14T04:03:42.684Z,0
2018-11-14T04:04:42.715Z,0
2018-11-14T04:05:44.355Z,0
2018-11-14T04:06:42.950Z,0
2018-11-14T04:07:43.177Z,0
2018-11-14T04:08:42.396Z,0
2018-11-14T04:09:43.434Z,0
2018-11-14T04:10:43.234Z,0
2018-11-14T04:11:43.137Z,0
2018-11-14T04:12:43.124Z,0
2018-11-14T04:13:42.359Z,0
2018-11-14T04:14:43.127Z,0
2018-11-14T04:15:42.896Z,0
2018-11-14T04:16:42.318Z,0
2018-11-14T04:17:42.574Z,0
2018-11-14T04:18:42.545Z,0
2018-11-14T04:19:43.070Z,0
2018-11-14T04:20:43.045Z,0
2018-11-14T04:21:42.513Z,0
2018-11-14T04:22:43.043Z,0
2018-11-14T04:23:43.017Z,0
2018-11-14T04:24:42.764Z,0
2018-11-14T04:25:42.774Z,0
2018-11-14T04:26:42.728Z,0
2018-11-14T04:27:43.004Z,0
2018-11-14T04:28:42.733Z,0
2018-11-14T04:29:42.699Z,0
2018-11-14T04:30:42.786Z,0
2018-11-14T04:31:42.689Z,0
2018-11-14T04:32:42.409Z,0
2018-11-14T04:33:42.407Z,0
2018-11-14T04:34:42.396Z,0
2018-11-14T04:35:42.674Z,0
2018-11-14T04:36:42.645Z,0
2018-11-14T04:37:42.372Z,0
2018-11-14T04:38:42.605Z,0
2018-11-14T04:39:42.615Z,0
2018-11-14T04:40:42.670Z,0
2018-11-14T04:41:42.325Z,0
2018-11-14T04:42:42.576Z,0
2018-11-14T04:43:42.556Z,0
2018-11-14T04:44:42.313Z,0
2018-11-14T04:45:42.391Z,0
2018-11-14T04:46:42.287Z,0
2018-11-14T04:47:42.293Z,0
2018-11-14T04:48:42.787Z,0
2018-11-14T04:49:42.505Z,0
2018-11-14T04:50:42.350Z,0
2018-11-14T04:51:42.248Z,0
2018-11-14T04:52:42.469Z,0
2018-11-14T04:53:42.458Z,0
2018-11-14T04:54:42.492Z,0
2018-11-14T04:55:42.509Z,0
2018-11-14T04:56:41.929Z,0
2018-11-14T04:57:42.686Z,0
2018-11-14T04:58:42.415Z,0
2018-11-14T04:59:42.433Z,0
2018-11-14T05:00:42.458Z,0
2018-11-14T05:01:42.425Z,0
2018-11-14T05:02:43.253Z,0
2018-11-14T05:03:42.632Z,0
2018-11-14T05:04:42.362Z,0
2018-11-14T05:05:42.609Z,0
2018-11-14T05:06:42.363Z,0
2018-11-14T05:07:42.102Z,0
2018-11-14T05:08:41.801Z,0
2018-11-14T05:09:42.324Z,0
2018-11-14T05:10:41.827Z,0
2018-11-14T05:11:42.306Z,0
2018-11-14T05:12:42.300Z,0
2018-11-14T05:13:42.561Z,0
2018-11-14T05:14:42.540Z,0
2018-11-14T05:15:42.309Z,0
2018-11-14T05:16:42.519Z,0
2018-11-14T05:17:42.543Z,0
2018-11-14T05:18:41.986Z,0
2018-11-14T05:19:42.478Z,0
2018-11-14T05:20:41.716Z,0
2018-11-14T05:21:42.484Z,0
2018-11-14T05:22:41.971Z,0
2018-11-14T05:23:42.449Z,0
2018-11-14T05:24:43.069Z,0
2018-11-14T05:25:41.910Z,0
2018-11-14T05:26:41.911Z,0
2018-11-14T05:27:41.897Z,0
2018-11-14T05:28:41.897Z,0
2018-11-14T05:29:42.428Z,0
2018-11-14T05:30:42.274Z,0
2018-11-14T05:31:42.174Z,0
2018-11-14T05:32:42.131Z,0
2018-11-14T05:33:41.857Z,0
2018-11-14T05:34:41.590Z,0
2018-11-14T05:35:42.162Z,0
2018-11-14T05:36:42.060Z,0
2018-11-14T05:37:41.806Z,0
2018-11-14T05:38:42.048Z,0
2018-11-14T05:39:42.192Z,0
2018-11-14T05:40:42.072Z,0
2018-11-14T05:41:41.498Z,0
2018-11-14T05:42:41.496Z,0
2018-11-14T05:43:42.001Z,0
2018-11-14T05:44:42.004Z,0
2018-11-14T05:45:42.503Z,0
2018-11-14T05:46:41.475Z,0
2018-11-14T05:47:42.255Z,0
2018-11-14T05:48:41.436Z,0
2018-11-14T05:49:41.696Z,0
2018-11-14T05:50:41.258Z,0
2018-11-14T05:51:41.926Z,0
2018-11-14T05:52:41.920Z,0
2018-11-14T05:53:41.651Z,0
2018-11-14T05:54:41.708Z,0
2018-11-14T05:55:41.712Z,0
2018-11-14T05:56:42.131Z,0
2018-11-14T05:57:41.634Z,0
2018-11-14T05:58:41.887Z,0
2018-11-14T05:59:41.871Z,0
2018-11-14T06:00:41.916Z,0
2018-11-14T06:01:41.571Z,0
2018-11-14T06:02:41.554Z,0
2018-11-14T06:03:42.062Z,0
2018-11-14T06:04:41.550Z,0
2018-11-14T06:05:41.941Z,0
2018-11-14T06:06:42.049Z,0
2018-11-14T06:07:42.110Z,0
2018-11-14T06:08:41.511Z,0
2018-11-14T06:09:41.768Z,0
2018-11-14T06:10:41.781Z,0
2018-11-14T06:11:41.729Z,0
2018-11-14T06:12:41.219Z,0
2018-11-14T06:13:41.711Z,0
2018-11-14T06:14:41.441Z,0
2018-11-14T06:15:42.049Z,0
2018-11-14T06:16:41.957Z,0
2018-11-14T06:17:41.449Z,0
2018-11-14T06:18:41.715Z,0
2018-11-14T06:19:41.441Z,0
2018-11-14T06:20:41.478Z,0
2018-11-14T06:21:41.961Z,0
2018-11-14T06:22:41.386Z,0
2018-11-14T06:23:41.996Z,0
2018-11-14T06:24:41.393Z,0
2018-11-14T06:25:41.688Z,0
2018-11-14T06:26:41.889Z,0
2018-11-14T06:27:41.343Z,0
2018-11-14T06:28:41.343Z,0
2018-11-14T06:29:41.476Z,0
2018-11-14T06:30:40.930Z,0
2018-11-14T06:31:41.567Z,5
2018-11-14T06:32:41.280Z,5
2018-11-14T06:33:41.026Z,5
2018-11-14T06:34:41.020Z,5
2018-11-14T06:35:41.838Z,5
2018-11-14T06:36:42.574Z,5
2018-11-14T06:37:41.260Z,5
2018-11-14T06:38:41.773Z,5
2018-11-14T06:39:41.238Z,5
2018-11-14T06:40:41.536Z,5
2018-11-14T06:41:42.226Z,5
2018-11-14T06:42:40.966Z,5
2018-11-14T06:43:40.707Z,10
2018-11-14T06:44:41.500Z,10
2018-11-14T06:45:41.472Z,10
2018-11-14T06:46:41.150Z,10
2018-11-14T06:47:41.654Z,15
2018-11-14T06:48:41.139Z,15
2018-11-14T06:49:41.676Z,15
2018-11-14T06:50:41.467Z,15
2018-11-14T06:51:41.366Z,15
2018-11-14T06:52:41.371Z,15
2018-11-14T06:53:41.093Z,20
2018-11-14T06:54:41.359Z,20
2018-11-14T06:55:41.428Z,20
2018-11-14T06:56:40.557Z,25
2018-11-14T06:57:41.337Z,25
2018-11-14T06:58:41.775Z,20
2018-11-14T06:59:41.820Z,20
2018-11-14T07:00:41.365Z,20
2018-11-14T07:01:40.806Z,25
2018-11-14T07:02:47.775Z,25
2018-11-14T07:03:41.393Z,30
2018-11-14T07:04:41.000Z,30
2018-11-14T07:05:41.409Z,30
2018-11-14T07:06:42.916Z,30
2018-11-14T07:07:40.716Z,30
2018-11-14T07:08:41.208Z,30
2018-11-14T07:09:41.448Z,30
2018-11-14T07:10:40.977Z,30
2018-11-14T07:11:41.218Z,25
2018-11-14T07:12:40.934Z,25
2018-11-14T07:13:40.387Z,30
2018-11-14T07:14:41.410Z,30
2018-11-14T07:15:41.471Z,30
2018-11-14T07:16:41.418Z,35
2018-11-14T07:17:41.302Z,35
2018-11-14T07:18:40.626Z,35
2018-11-14T07:19:40.858Z,35
2018-11-14T07:20:40.719Z,35
2018-11-14T07:21:40.837Z,35
2018-11-14T07:22:41.086Z,40
2018-11-14T07:23:41.549Z,40
2018-11-14T07:24:41.602Z,40
2018-11-14T07:25:40.623Z,40
2018-11-14T07:26:41.048Z,45
2018-11-14T07:27:41.342Z,45
2018-11-14T07:28:40.548Z,45
2018-11-14T07:29:40.783Z,45
2018-11-14T07:30:40.827Z,45
2018-11-14T07:31:41.013Z,50
2018-11-14T07:32:40.765Z,55
2018-11-14T07:33:41.000Z,55
2018-11-14T07:34:40.992Z,50
2018-11-14T07:35:41.045Z,50
2018-11-14T07:36:40.492Z,50
2018-11-14T07:37:44.247Z,55
2018-11-14T07:38:40.985Z,60
2018-11-14T07:39:40.992Z,65
2018-11-14T07:40:41.016Z,65
2018-11-14T07:41:40.714Z,70
2018-11-14T07:42:40.407Z,75
2018-11-14T07:43:41.847Z,70
2018-11-14T07:44:40.900Z,75
2018-11-14T07:45:40.701Z,75
2018-11-14T07:46:40.907Z,80
2018-11-14T07:47:40.871Z,75
2018-11-14T07:48:40.599Z,80
2018-11-14T07:49:40.871Z,75
2018-11-14T07:50:40.718Z,80
2018-11-14T07:51:40.615Z,75
2018-11-14T07:52:40.564Z,75
2018-11-14T07:53:40.567Z,75
2018-11-14T07:54:41.148Z,75
2018-11-14T07:55:40.852Z,75
2018-11-14T07:56:40.792Z,75
2018-11-14T07:57:40.274Z,80
2018-11-14T07:58:40.829Z,90
2018-11-14T07:59:40.783Z,90
2018-11-14T08:00:41.102Z,95
2018-11-14T08:01:40.760Z,95
2018-11-14T08:02:40.478Z,90
2018-11-14T08:03:40.750Z,90
2018-11-14T08:04:40.754Z,90
2018-11-14T08:05:40.812Z,95
2018-11-14T08:06:40.193Z,100
2018-11-14T08:07:40.479Z,100
2018-11-14T08:08:40.631Z,105
2018-11-14T08:09:40.755Z,100
2018-11-14T08:10:40.992Z,100
2018-11-14T08:11:40.913Z,100
2018-11-14T08:12:40.376Z,100
2018-11-14T08:13:40.395Z,100
2018-11-14T08:14:40.360Z,105
2018-11-14T08:15:40.193Z,105
2018-11-14T08:16:40.359Z,110
2018-11-14T08:17:39.848Z,110
2018-11-14T08:18:40.700Z,110
2018-11-14T08:19:40.062Z,105
2018-11-14T08:20:40.418Z,105
2018-11-14T08:21:40.871Z,120
2018-11-14T08:22:40.060Z,120
2018-11-14T08:23:40.837Z,120
2018-11-14T08:24:40.554Z,120
2018-11-14T08:25:40.878Z,125
2018-11-14T08:26:40.797Z,120
2018-11-14T08:27:40.822Z,125
2018-11-14T08:28:40.515Z,125
2018-11-14T08:29:39.982Z,135
2018-11-14T08:30:41.029Z,130
2018-11-14T08:31:40.269Z,140
2018-11-14T08:32:40.512Z,145
2018-11-14T08:33:39.978Z,150
2018-11-14T08:34:40.209Z,150
2018-11-14T08:35:40.279Z,150
2018-11-14T08:36:40.446Z,150
2018-11-14T08:37:41.234Z,150
2018-11-14T08:38:40.435Z,150
2018-11-14T08:39:40.433Z,150
2018-11-14T08:40:40.210Z,155
2018-11-14T08:41:40.417Z,155
2018-11-14T08:42:40.142Z,155
2018-11-14T08:43:40.147Z,160
2018-11-14T08:44:40.379Z,160
2018-11-14T08:45:40.415Z,160
2018-11-14T08:46:40.663Z,160
2018-11-14T08:47:40.378Z,160
2018-11-14T08:48:40.339Z,160
2018-11-14T08:49:40.622Z,160
2018-11-14T08:50:40.643Z,160
2018-11-14T08:51:40.318Z,160
2018-11-14T08:52:40.072Z,160
2018-11-14T08:53:40.600Z,165
2018-11-14T08:54:39.779Z,165
2018-11-14T08:55:40.109Z,165
2018-11-14T08:56:40.547Z,165
2018-11-14T08:57:40.273Z,165
2018-11-14T08:58:40.278Z,170
2018-11-14T08:59:40.016Z,170
2018-11-14T09:00:40.589Z,170
2018-11-14T09:01:39.475Z,170
2018-11-14T09:02:39.998Z,175
2018-11-14T09:03:39.979Z,175
2018-11-14T09:04:40.262Z,175
2018-11-14T09:05:40.537Z,165
2018-11-14T09:06:39.959Z,175
2018-11-14T09:07:40.551Z,175
2018-11-14T09:08:42.646Z,180
2018-11-14T09:09:40.225Z,175
2018-11-14T09:10:39.996Z,175
2018-11-14T09:11:40.157Z,180
2018-11-14T09:12:39.841Z,180
2018-11-14T09:13:40.173Z,180
2018-11-14T09:14:41.023Z,180
2018-11-14T09:15:39.967Z,185
2018-11-14T09:16:40.414Z,180
2018-11-14T09:17:40.156Z,180
2018-11-14T09:18:40.773Z,180
2018-11-14T09:19:39.642Z,180
2018-11-14T09:20:40.412Z,180
2018-11-14T09:21:39.610Z,180
2018-11-14T09:22:40.349Z,180
2018-11-14T09:23:39.648Z,185
2018-11-14T09:24:40.121Z,185
2018-11-14T09:25:40.196Z,185
2018-11-14T09:26:40.324Z,185
2018-11-14T09:27:40.047Z,185
2018-11-14T09:28:39.545Z,185
2018-11-14T09:29:40.292Z,185
2018-11-14T09:30:39.813Z,185
2018-11-14T09:31:40.040Z,185
2018-11-14T09:32:39.526Z,185
2018-11-14T09:33:40.015Z,185
2018-11-14T09:34:40.440Z,185
2018-11-14T09:35:40.356Z,185
2018-11-14T09:36:39.482Z,185
2018-11-14T09:37:39.983Z,185
2018-11-14T09:38:41.749Z,185
2018-11-14T09:39:39.708Z,185
2018-11-14T09:40:39.975Z,185
2018-11-14T09:41:39.910Z,185
2018-11-14T09:42:39.702Z,185
2018-11-14T09:43:40.239Z,185
2018-11-14T09:44:40.200Z,185
2018-11-14T09:45:39.949Z,185
2018-11-14T09:46:39.945Z,185
2018-11-14T09:47:39.666Z,185
2018-11-14T09:48:40.200Z,185
2018-11-14T09:49:40.054Z,185
2018-11-14T09:50:39.944Z,185
2018-11-14T09:51:39.385Z,185
2018-11-14T09:52:39.388Z,185
2018-11-14T09:53:39.402Z,185
2018-11-14T09:54:40.132Z,185
2018-11-14T09:55:39.654Z,185
2018-11-14T09:56:40.270Z,185
2018-11-14T09:57:40.137Z,190
2018-11-14T09:58:39.894Z,185
2018-11-14T09:59:40.099Z,185
2018-11-14T10:00:40.138Z,185
2018-11-14T10:01:39.841Z,185
2018-11-14T10:02:39.626Z,185
2018-11-14T10:03:40.263Z,190
2018-11-14T10:04:39.813Z,185
2018-11-14T10:05:39.731Z,185
2018-11-14T10:06:40.057Z,185
2018-11-14T10:07:39.597Z,185
2018-11-14T10:08:40.319Z,185
2018-11-14T10:09:39.524Z,180
2018-11-14T10:10:39.858Z,180
2018-11-14T10:11:39.771Z,180
2018-11-14T10:12:40.265Z,180
2018-11-14T10:13:39.777Z,180
2018-11-14T10:14:40.015Z,175
2018-11-14T10:15:39.725Z,180
2018-11-14T10:16:39.734Z,180
2018-11-14T10:17:39.779Z,180
2018-11-14T10:18:40.227Z,180
2018-11-14T10:19:39.955Z,180
2018-11-14T10:20:40.021Z,180
2018-11-14T10:21:40.180Z,180
2018-11-14T10:22:39.461Z,175
2018-11-14T10:23:39.943Z,180
2018-11-14T10:24:39.436Z,175
2018-11-14T10:25:39.747Z,175
2018-11-14T10:26:39.917Z,180
2018-11-14T10:27:39.664Z,180
2018-11-14T10:28:39.418Z,180
2018-11-14T10:29:39.901Z,180
2018-11-14T10:30:39.447Z,180
2018-11-14T10:31:39.876Z,180
2018-11-14T10:32:39.886Z,180
2018-11-14T10:33:39.621Z,180
2018-11-14T10:34:39.650Z,180
2018-11-14T10:35:39.656Z,180
2018-11-14T10:36:39.613Z,175
2018-11-14T10:37:39.589Z,175
2018-11-14T10:38:39.580Z,175
2018-11-14T10:39:39.605Z,175
2018-11-14T10:40:39.409Z,175
2018-11-14T10:41:39.360Z,175
2018-11-14T10:42:39.622Z,175
2018-11-14T10:43:39.599Z,175
2018-11-14T10:44:39.363Z,175
2018-11-14T10:45:39.609Z,175
2018-11-14T10:46:39.561Z,175
2018-11-14T10:47:39.279Z,170
2018-11-14T10:48:39.302Z,170
2018-11-14T10:49:39.358Z,170
2018-11-14T10:50:39.599Z,170
2018-11-14T10:51:39.279Z,170
2018-11-14T10:52:39.021Z,170
2018-11-14T10:53:39.279Z,170
2018-11-14T10:54:39.758Z,170
2018-11-14T10:55:39.329Z,170
2018-11-14T10:56:39.760Z,170
2018-11-14T10:57:39.487Z,170
2018-11-14T10:58:40.168Z,165
2018-11-14T10:59:39.782Z,175
2018-11-14T11:00:39.602Z,170
2018-11-14T11:01:39.225Z,170
2018-11-14T11:02:39.232Z,175
2018-11-14T11:03:39.453Z,170
2018-11-14T11:04:39.213Z,170
2018-11-14T11:05:39.530Z,165
2018-11-14T11:06:39.454Z,165
2018-11-14T11:07:39.452Z,165
2018-11-14T11:08:39.527Z,165
2018-11-14T11:09:40.379Z,165
2018-11-14T11:10:39.278Z,165
2018-11-14T11:11:39.706Z,165
2018-11-14T11:12:39.423Z,160
2018-11-14T11:13:39.466Z,160
2018-11-14T11:14:39.173Z,165
2018-11-14T11:15:38.922Z,165
2018-11-14T11:16:39.176Z,165
2018-11-14T11:17:39.154Z,165
2018-11-14T11:18:39.196Z,165
2018-11-14T11:19:38.894Z,165
2018-11-14T11:20:39.182Z,165
2018-11-14T11:21:39.167Z,165
2018-11-14T11:22:39.389Z,165
2018-11-14T11:23:39.814Z,165
2018-11-14T11:24:39.633Z,165
2018-11-14T11:25:39.136Z,160
2018-11-14T11:26:38.840Z,165
2018-11-14T11:27:39.377Z,165
2018-11-14T11:28:39.345Z,165
2018-11-14T11:29:38.828Z,160
2018-11-14T11:30:39.175Z,160
2018-11-14T11:31:38.818Z,160
2018-11-14T11:32:38.566Z,160
2018-11-14T11:33:39.102Z,160
2018-11-14T11:34:39.084Z,160
2018-11-14T11:35:39.699Z,160
2018-11-14T11:36:39.298Z,160
2018-11-14T11:37:39.085Z,160
2018-11-14T11:38:39.044Z,160
2018-11-14T11:39:39.043Z,160
2018-11-14T11:40:38.550Z,160
2018-11-14T11:41:39.574Z,160
2018-11-14T11:42:39.278Z,160
2018-11-14T11:43:39.047Z,160
2018-11-14T11:44:39.842Z,165
2018-11-14T11:45:39.125Z,160
2018-11-14T11:46:39.013Z,160
2018-11-14T11:47:39.276Z,160
2018-11-14T11:48:38.478Z,160
2018-11-14T11:49:39.110Z,155
2018-11-14T11:50:39.278Z,155
2018-11-14T11:51:38.752Z,155
2018-11-14T11:52:39.245Z,155
2018-11-14T11:53:38.996Z,155
2018-11-14T11:54:39.241Z,155
2018-11-14T11:55:39.025Z,155
2018-11-14T11:56:39.232Z,155
2018-11-14T11:57:39.173Z,150
2018-11-14T11:58:38.939Z,155
2018-11-14T11:59:40.107Z,155
2018-11-14T12:00:41.188Z,150
2018-11-14T12:01:38.958Z,150
2018-11-14T12:02:39.199Z,150
2018-11-14T12:03:38.926Z,150
2018-11-14T12:04:39.704Z,150
2018-11-14T12:05:39.601Z,150
2018-11-14T12:06:39.437Z,150
2018-11-14T12:07:38.664Z,150
2018-11-14T12:08:38.648Z,145
2018-11-14T12:09:38.664Z,145
2018-11-14T12:10:39.178Z,150
2018-11-14T12:11:39.180Z,150
2018-11-14T12:12:38.907Z,150
2018-11-14T12:13:39.499Z,150
2018-11-14T12:14:38.914Z,150
2018-11-14T12:15:38.934Z,145
2018-11-14T12:16:39.147Z,145
2018-11-14T12:17:38.638Z,145
2018-11-14T12:18:38.933Z,145
2018-11-14T12:19:38.859Z,145
2018-11-14T12:20:38.899Z,145
2018-11-14T12:21:39.388Z,145
2018-11-14T12:22:39.397Z,145
2018-11-14T12:23:39.203Z,145
2018-11-14T12:24:38.608Z,145
2018-11-14T12:25:38.881Z,145
2018-11-14T12:26:39.089Z,145
2018-11-14T12:27:39.026Z,145
2018-11-14T12:28:39.112Z,145
2018-11-14T12:29:38.853Z,145
2018-11-14T12:30:40.629Z,145
2018-11-14T12:31:39.128Z,145
2018-11-14T12:32:39.125Z,145
2018-11-14T12:33:39.606Z,145
2018-11-14T12:34:38.917Z,145
2018-11-14T12:35:39.670Z,140
2018-11-14T12:36:39.111Z,145
2018-11-14T12:37:39.362Z,145
2018-11-14T12:38:38.937Z,140
2018-11-14T12:39:39.075Z,140
2018-11-14T12:40:39.181Z,140
2018-11-14T12:41:38.787Z,140
2018-11-14T12:42:38.793Z,140
2018-11-14T12:43:38.798Z,140
2018-11-14T12:44:39.050Z,140
2018-11-14T12:45:38.603Z,140
2018-11-14T12:46:38.534Z,140
2018-11-14T12:47:38.799Z,135
2018-11-14T12:48:38.776Z,135
2018-11-14T12:49:38.802Z,135
2018-11-14T12:50:38.841Z,135
2018-11-14T12:51:39.041Z,135
2018-11-14T12:52:39.906Z,135
2018-11-14T12:53:38.746Z,135
2018-11-14T12:54:38.993Z,135
2018-11-14T12:55:38.998Z,135
2018-11-14T12:56:38.739Z,135
2018-11-14T12:57:38.744Z,135
2018-11-14T12:58:39.027Z,130
2018-11-14T12:59:39.111Z,130
2018-11-14T13:00:39.306Z,130
2018-11-14T13:01:38.759Z,130
2018-11-14T13:02:39.009Z,130
2018-11-14T13:03:38.862Z,130
2018-11-14T13:04:38.499Z,130
2018-11-14T13:05:38.782Z,130
2018-11-14T13:06:38.729Z,130
2018-11-14T13:07:39.257Z,125
2018-11-14T13:08:38.966Z,125
2018-11-14T13:09:38.718Z,125
2018-11-14T13:10:39.793Z,125
2018-11-14T13:11:38.738Z,125
2018-11-14T13:12:39.235Z,125
2018-11-14T13:13:39.211Z,125
2018-11-14T13:14:38.993Z,125
2018-11-14T13:15:39.267Z,125
2018-11-14T13:16:38.966Z,120
2018-11-14T13:17:38.947Z,120
2018-11-14T13:18:38.782Z,120
2018-11-14T13:19:38.722Z,120
2018-11-14T13:20:38.270Z,120
2018-11-14T13:21:38.451Z,120
2018-11-14T13:22:38.671Z,120
2018-11-14T13:23:38.925Z,115
2018-11-14T13:24:38.938Z,115
2018-11-14T13:25:39.001Z,115
2018-11-14T13:26:38.666Z,115
2018-11-14T13:27:38.682Z,115
2018-11-14T13:28:38.968Z,115
2018-11-14T13:29:38.720Z,115
2018-11-14T13:30:38.649Z,115
2018-11-14T13:31:38.919Z,115
2018-11-14T13:32:38.662Z,110
2018-11-14T13:33:38.904Z,110
2018-11-14T13:34:38.660Z,110
2018-11-14T13:35:38.957Z,110
2018-11-14T13:36:38.435Z,110
2018-11-14T13:37:38.911Z,110
2018-11-14T13:38:38.672Z,110
2018-11-14T13:39:38.908Z,110
2018-11-14T13:40:38.662Z,105
2018-11-14T13:41:38.366Z,105
2018-11-14T13:42:38.377Z,105
2018-11-14T13:43:38.404Z,105
2018-11-14T13:44:38.647Z,105
2018-11-14T13:45:38.685Z,105
2018-11-14T13:46:38.625Z,105
2018-11-14T13:47:38.872Z,105
2018-11-14T13:48:38.930Z,105
2018-11-14T13:49:38.781Z,105
2018-11-14T13:50:40.612Z,105
2018-11-14T13:51:38.611Z,105
2018-11-14T13:52:38.342Z,105
2018-11-14T13:53:38.609Z,105
2018-11-14T13:54:38.348Z,105
2018-11-14T13:55:38.962Z,105
2018-11-14T13:56:38.861Z,105
2018-11-14T13:57:38.844Z,100
2018-11-14T13:58:38.329Z,100
2018-11-14T13:59:39.153Z,100
2018-11-14T14:00:38.911Z,100
2018-11-14T14:01:38.827Z,100
2018-11-14T14:02:38.061Z,95
2018-11-14T14:03:38.578Z,95
2018-11-14T14:04:38.617Z,95
2018-11-14T14:05:38.631Z,90
2018-11-14T14:06:38.318Z,90
2018-11-14T14:07:38.829Z,90
2018-11-14T14:08:39.062Z,90
2018-11-14T14:09:39.259Z,85
2018-11-14T14:10:38.548Z,85
2018-11-14T14:11:40.397Z,85
2018-11-14T14:12:38.789Z,85
2018-11-14T14:13:38.802Z,85
2018-11-14T14:14:39.063Z,85
2018-11-14T14:15:38.808Z,80
2018-11-14T14:16:39.306Z,80
2018-11-14T14:17:38.542Z,80